sensor_id;sensor_type;location;lat;lon;timestamp;temperature;humidity
75134;HTU21D;64441;44.708;37.780;2022-11-18T00:01:47;14.58;80.30
75134;HTU21D;64441;44.708;37.780;2022-11-18T00:04:13;14.56;80.33
75134;HTU21D;64441;44.708;37.780;2022-11-18T00:06:39;14.57;80.99
75134;HTU21D;64441;44.708;37.780;2022-11-18T00:09:05;14.55;80.78
75134;HTU21D;64441;44.708;37.780;2022-11-18T00:11:31;14.55;81.27
75134;HTU21D;64441;44.708;37.780;2022-11-18T00:14:16;14.53;81.39
75134;HTU21D;64441;44.708;37.780;2022-11-18T00:16:55;14.52;81.46
75134;HTU21D;64441;44.708;37.780;2022-11-18T00:19:26;14.49;81.49
75134;HTU21D;64441;44.708;37.780;2022-11-18T00:21:52;14.47;81.49
75134;HTU21D;64441;44.708;37.780;2022-11-18T00:24:18;14.48;81.56
75134;HTU21D;64441;44.708;37.780;2022-11-18T00:26:44;14.48;81.84
75134;HTU21D;64441;44.708;37.780;2022-11-18T00:29:10;14.48;81.69
75134;HTU21D;64441;44.708;37.780;2022-11-18T00:31:36;14.47;81.84
75134;HTU21D;64441;44.708;37.780;2022-11-18T00:34:02;14.47;81.95
75134;HTU21D;64441;44.708;37.780;2022-11-18T00:36:28;14.48;81.99
75134;HTU21D;64441;44.708;37.780;2022-11-18T00:38:54;14.49;82.01
75134;HTU21D;64441;44.708;37.780;2022-11-18T00:41:20;14.47;81.84
75134;HTU21D;64441;44.708;37.780;2022-11-18T00:43:45;14.50;82.06
75134;HTU21D;64441;44.708;37.780;2022-11-18T00:46:12;14.51;81.88
75134;HTU21D;64441;44.708;37.780;2022-11-18T00:48:38;14.52;81.75
75134;HTU21D;64441;44.708;37.780;2022-11-18T00:51:14;14.53;81.57
75134;HTU21D;64441;44.708;37.780;2022-11-18T00:53:41;14.55;81.74
75134;HTU21D;64441;44.708;37.780;2022-11-18T00:56:07;14.56;82.03
75134;HTU21D;64441;44.708;37.780;2022-11-18T00:58:33;14.59;82.10
75134;HTU21D;64441;44.708;37.780;2022-11-18T01:00:59;14.62;81.88
75134;HTU21D;64441;44.708;37.780;2022-11-18T01:03:25;14.64;81.78
75134;HTU21D;64441;44.708;37.780;2022-11-18T01:05:52;14.66;81.75
75134;HTU21D;64441;44.708;37.780;2022-11-18T01:08:18;14.67;81.77
75134;HTU21D;64441;44.708;37.780;2022-11-18T01:10:44;14.69;82.07
75134;HTU21D;64441;44.708;37.780;2022-11-18T01:13:15;14.72;82.27
75134;HTU21D;64441;44.708;37.780;2022-11-18T01:16:05;14.74;82.10
75134;HTU21D;64441;44.708;37.780;2022-11-18T01:18:30;14.79;82.31
75134;HTU21D;64441;44.708;37.780;2022-11-18T01:21:00;14.80;82.06
75134;HTU21D;64441;44.708;37.780;2022-11-18T01:23:26;14.81;82.05
75134;HTU21D;64441;44.708;37.780;2022-11-18T01:25:52;14.85;81.95
75134;HTU21D;64441;44.708;37.780;2022-11-18T01:28:18;14.85;81.97
75134;HTU21D;64441;44.708;37.780;2022-11-18T01:30:44;14.88;81.89
75134;HTU21D;64441;44.708;37.780;2022-11-18T01:33:10;14.88;81.85
75134;HTU21D;64441;44.708;37.780;2022-11-18T01:35:37;14.92;81.85
75134;HTU21D;64441;44.708;37.780;2022-11-18T01:38:04;14.92;81.91
75134;HTU21D;64441;44.708;37.780;2022-11-18T01:40:30;14.94;81.77
75134;HTU21D;64441;44.708;37.780;2022-11-18T01:42:56;14.96;81.81
75134;HTU21D;64441;44.708;37.780;2022-11-18T01:45:26;14.97;81.81
75134;HTU21D;64441;44.708;37.780;2022-11-18T01:47:58;14.97;81.72
75134;HTU21D;64441;44.708;37.780;2022-11-18T01:50:25;14.98;81.75
75134;HTU21D;64441;44.708;37.780;2022-11-18T01:52:52;15.00;81.67
75134;HTU21D;64441;44.708;37.780;2022-11-18T01:55:22;14.99;81.65
75134;HTU21D;64441;44.708;37.780;2022-11-18T01:57:49;15.00;81.59
75134;HTU21D;64441;44.708;37.780;2022-11-18T02:00:16;14.98;81.55
75134;HTU21D;64441;44.708;37.780;2022-11-18T02:02:42;15.00;81.55
75134;HTU21D;64441;44.708;37.780;2022-11-18T02:05:08;14.99;81.54
75134;HTU21D;64441;44.708;37.780;2022-11-18T02:07:36;14.99;81.55
75134;HTU21D;64441;44.708;37.780;2022-11-18T02:10:04;14.97;81.54
75134;HTU21D;64441;44.708;37.780;2022-11-18T02:12:30;14.95;81.45
75134;HTU21D;64441;44.708;37.780;2022-11-18T02:14:56;14.93;81.46
75134;HTU21D;64441;44.708;37.780;2022-11-18T02:20:50;14.89;81.39
75134;HTU21D;64441;44.708;37.780;2022-11-18T02:25:30;14.89;81.34
75134;HTU21D;64441;44.708;37.780;2022-11-18T02:30:26;14.88;81.32
75134;HTU21D;64441;44.708;37.780;2022-11-18T02:33:03;14.87;81.28
75134;HTU21D;64441;44.708;37.780;2022-11-18T02:35:53;14.89;81.26
75134;HTU21D;64441;44.708;37.780;2022-11-18T02:38:30;14.89;81.21
75134;HTU21D;64441;44.708;37.780;2022-11-18T02:41:07;14.88;81.20
75134;HTU21D;64441;44.708;37.780;2022-11-18T02:43:56;14.89;81.27
75134;HTU21D;64441;44.708;37.780;2022-11-18T02:46:24;14.91;81.23
75134;HTU21D;64441;44.708;37.780;2022-11-18T02:48:51;14.91;81.17
75134;HTU21D;64441;44.708;37.780;2022-11-18T02:51:19;14.91;81.17
75134;HTU21D;64441;44.708;37.780;2022-11-18T02:53:46;14.92;81.15
75134;HTU21D;64441;44.708;37.780;2022-11-18T02:56:13;14.92;81.15
75134;HTU21D;64441;44.708;37.780;2022-11-18T02:58:40;14.92;81.08
75134;HTU21D;64441;44.708;37.780;2022-11-18T03:01:06;14.93;81.09
75134;HTU21D;64441;44.708;37.780;2022-11-18T03:03:33;14.94;81.12
75134;HTU21D;64441;44.708;37.780;2022-11-18T03:08:25;14.96;81.15
75134;HTU21D;64441;44.708;37.780;2022-11-18T03:10:53;14.98;81.14
75134;HTU21D;64441;44.708;37.780;2022-11-18T03:16:18;14.99;80.94
75134;HTU21D;64441;44.708;37.780;2022-11-18T03:21:40;14.97;80.86
75134;HTU21D;64441;44.708;37.780;2022-11-18T03:26:37;14.97;80.72
75134;HTU21D;64441;44.708;37.780;2022-11-18T03:29:25;14.99;80.67
75134;HTU21D;64441;44.708;37.780;2022-11-18T03:31:58;14.99;80.58
75134;HTU21D;64441;44.708;37.780;2022-11-18T03:34:28;15.00;80.44
75134;HTU21D;64441;44.708;37.780;2022-11-18T03:36:56;15.03;80.30
75134;HTU21D;64441;44.708;37.780;2022-11-18T03:39:23;15.06;80.17
75134;HTU21D;64441;44.708;37.780;2022-11-18T03:41:54;15.06;80.06
75134;HTU21D;64441;44.708;37.780;2022-11-18T03:44:23;15.07;79.95
75134;HTU21D;64441;44.708;37.780;2022-11-18T03:46:52;15.08;79.76
75134;HTU21D;64441;44.708;37.780;2022-11-18T03:49:25;15.06;79.66
75134;HTU21D;64441;44.708;37.780;2022-11-18T03:52:01;15.06;79.48
75134;HTU21D;64441;44.708;37.780;2022-11-18T03:54:30;15.06;79.41
75134;HTU21D;64441;44.708;37.780;2022-11-18T03:59:51;15.06;79.24
75134;HTU21D;64441;44.708;37.780;2022-11-18T04:02:24;15.06;79.21
75134;HTU21D;64441;44.708;37.780;2022-11-18T04:04:52;15.06;79.15
75134;HTU21D;64441;44.708;37.780;2022-11-18T04:07:22;15.08;79.05
75134;HTU21D;64441;44.708;37.780;2022-11-18T04:09:59;15.08;79.00
75134;HTU21D;64441;44.708;37.780;2022-11-18T04:12:28;15.09;78.94
75134;HTU21D;64441;44.708;37.780;2022-11-18T04:14:55;15.09;78.88
75134;HTU21D;64441;44.708;37.780;2022-11-18T04:17:24;15.11;78.83
75134;HTU21D;64441;44.708;37.780;2022-11-18T04:19:51;15.11;78.74
75134;HTU21D;64441;44.708;37.780;2022-11-18T04:22:17;15.12;78.63
75134;HTU21D;64441;44.708;37.780;2022-11-18T04:24:43;15.13;78.47
75134;HTU21D;64441;44.708;37.780;2022-11-18T04:27:09;15.13;78.53
75134;HTU21D;64441;44.708;37.780;2022-11-18T04:29:35;15.14;78.54
75134;HTU21D;64441;44.708;37.780;2022-11-18T04:32:02;15.14;78.50
75134;HTU21D;64441;44.708;37.780;2022-11-18T04:34:28;15.15;78.50
75134;HTU21D;64441;44.708;37.780;2022-11-18T04:36:55;15.16;78.46
75134;HTU21D;64441;44.708;37.780;2022-11-18T04:39:21;15.16;78.43
75134;HTU21D;64441;44.708;37.780;2022-11-18T04:41:47;15.17;78.43
75134;HTU21D;64441;44.708;37.780;2022-11-18T04:44:22;15.16;78.39
75134;HTU21D;64441;44.708;37.780;2022-11-18T04:46:48;15.14;78.31
75134;HTU21D;64441;44.708;37.780;2022-11-18T04:49:14;15.13;78.21
75134;HTU21D;64441;44.708;37.780;2022-11-18T04:51:40;15.12;78.15
75134;HTU21D;64441;44.708;37.780;2022-11-18T04:54:07;15.12;78.09
75134;HTU21D;64441;44.708;37.780;2022-11-18T04:56:32;15.10;78.05
75134;HTU21D;64441;44.708;37.780;2022-11-18T04:59:03;15.06;78.06
75134;HTU21D;64441;44.708;37.780;2022-11-18T05:01:30;15.02;78.07
75134;HTU21D;64441;44.708;37.780;2022-11-18T05:03:56;14.99;78.10
75134;HTU21D;64441;44.708;37.780;2022-11-18T05:06:22;14.97;78.14
75134;HTU21D;64441;44.708;37.780;2022-11-18T05:08:48;14.92;78.22
75134;HTU21D;64441;44.708;37.780;2022-11-18T05:11:14;14.88;78.22
75134;HTU21D;64441;44.708;37.780;2022-11-18T05:13:59;14.87;78.24
75134;HTU21D;64441;44.708;37.780;2022-11-18T05:16:25;14.86;78.22
75134;HTU21D;64441;44.708;37.780;2022-11-18T05:18:51;14.85;78.19
75134;HTU21D;64441;44.708;37.780;2022-11-18T05:21:16;14.86;78.13
75134;HTU21D;64441;44.708;37.780;2022-11-18T05:23:42;14.86;78.15
75134;HTU21D;64441;44.708;37.780;2022-11-18T05:26:09;14.87;78.15
75134;HTU21D;64441;44.708;37.780;2022-11-18T05:28:35;14.89;78.11
75134;HTU21D;64441;44.708;37.780;2022-11-18T05:31:11;14.95;78.07
75134;HTU21D;64441;44.708;37.780;2022-11-18T05:33:37;14.98;77.97
75134;HTU21D;64441;44.708;37.780;2022-11-18T05:36:04;15.01;77.92
75134;HTU21D;64441;44.708;37.780;2022-11-18T05:38:30;15.02;77.87
75134;HTU21D;64441;44.708;37.780;2022-11-18T05:40:56;15.04;77.85
75134;HTU21D;64441;44.708;37.780;2022-11-18T05:43:22;15.08;77.85
75134;HTU21D;64441;44.708;37.780;2022-11-18T05:45:49;15.09;77.85
75134;HTU21D;64441;44.708;37.780;2022-11-18T05:48:15;15.14;77.85
75134;HTU21D;64441;44.708;37.780;2022-11-18T05:50:41;15.17;77.79
75134;HTU21D;64441;44.708;37.780;2022-11-18T05:53:06;15.19;77.76
75134;HTU21D;64441;44.708;37.780;2022-11-18T05:55:41;15.25;77.72
75134;HTU21D;64441;44.708;37.780;2022-11-18T05:58:09;15.28;77.72
75134;HTU21D;64441;44.708;37.780;2022-11-18T06:00:34;15.31;77.34
75134;HTU21D;64441;44.708;37.780;2022-11-18T06:03:00;15.36;77.38
75134;HTU21D;64441;44.708;37.780;2022-11-18T06:05:27;15.39;77.37
75134;HTU21D;64441;44.708;37.780;2022-11-18T06:07:53;15.42;77.26
75134;HTU21D;64441;44.708;37.780;2022-11-18T06:10:22;15.45;77.25
75134;HTU21D;64441;44.708;37.780;2022-11-18T06:12:49;15.48;76.94
75134;HTU21D;64441;44.708;37.780;2022-11-18T06:15:25;15.49;76.89
75134;HTU21D;64441;44.708;37.780;2022-11-18T06:17:57;15.51;76.88
75134;HTU21D;64441;44.708;37.780;2022-11-18T06:20:24;15.52;76.94
75134;HTU21D;64441;44.708;37.780;2022-11-18T06:22:52;15.54;76.81
75134;HTU21D;64441;44.708;37.780;2022-11-18T06:25:18;15.57;76.86
75134;HTU21D;64441;44.708;37.780;2022-11-18T06:27:45;15.62;76.73
75134;HTU21D;64441;44.708;37.780;2022-11-18T06:30:12;15.67;76.64
75134;HTU21D;64441;44.708;37.780;2022-11-18T06:32:38;15.72;76.50
75134;HTU21D;64441;44.708;37.780;2022-11-18T06:35:05;15.76;76.41
75134;HTU21D;64441;44.708;37.780;2022-11-18T06:37:31;15.80;76.33
75134;HTU21D;64441;44.708;37.780;2022-11-18T06:39:59;15.82;76.12
75134;HTU21D;64441;44.708;37.780;2022-11-18T06:42:28;15.82;76.02
75134;HTU21D;64441;44.708;37.780;2022-11-18T06:45:13;15.81;75.99
75134;HTU21D;64441;44.708;37.780;2022-11-18T06:47:39;15.78;75.95
75134;HTU21D;64441;44.708;37.780;2022-11-18T06:50:05;15.77;75.86
75134;HTU21D;64441;44.708;37.780;2022-11-18T06:52:31;15.73;75.77
75134;HTU21D;64441;44.708;37.780;2022-11-18T06:54:57;15.70;75.64
75134;HTU21D;64441;44.708;37.780;2022-11-18T06:57:22;15.66;75.70
75134;HTU21D;64441;44.708;37.780;2022-11-18T06:59:48;15.60;75.60
75134;HTU21D;64441;44.708;37.780;2022-11-18T07:02:17;15.55;75.65
75134;HTU21D;64441;44.708;37.780;2022-11-18T07:04:44;15.48;75.64
75134;HTU21D;64441;44.708;37.780;2022-11-18T07:07:09;15.45;75.73
75134;HTU21D;64441;44.708;37.780;2022-11-18T07:09:35;15.42;75.83
75134;HTU21D;64441;44.708;37.780;2022-11-18T07:12:02;15.42;75.90
75134;HTU21D;64441;44.708;37.780;2022-11-18T07:14:28;15.42;75.87
75134;HTU21D;64441;44.708;37.780;2022-11-18T07:16:55;15.43;75.93
75134;HTU21D;64441;44.708;37.780;2022-11-18T07:19:20;15.44;75.86
75134;HTU21D;64441;44.708;37.780;2022-11-18T07:21:46;15.49;75.77
75134;HTU21D;64441;44.708;37.780;2022-11-18T07:24:13;15.52;75.83
75134;HTU21D;64441;44.708;37.780;2022-11-18T07:26:39;15.55;75.68
75134;HTU21D;64441;44.708;37.780;2022-11-18T07:29:05;15.56;75.68
75134;HTU21D;64441;44.708;37.780;2022-11-18T07:31:31;15.59;75.70
75134;HTU21D;64441;44.708;37.780;2022-11-18T07:33:59;15.61;75.70
75134;HTU21D;64441;44.708;37.780;2022-11-18T07:36:26;15.63;75.60
75134;HTU21D;64441;44.708;37.780;2022-11-18T07:38:52;15.63;75.28
75134;HTU21D;64441;44.708;37.780;2022-11-18T07:41:19;15.62;75.42
75134;HTU21D;64441;44.708;37.780;2022-11-18T07:43:46;15.61;75.48
75134;HTU21D;64441;44.708;37.780;2022-11-18T07:48:39;15.66;75.63
75134;HTU21D;64441;44.708;37.780;2022-11-18T07:51:05;15.70;75.33
75134;HTU21D;64441;44.708;37.780;2022-11-18T07:53:32;15.73;75.25
75134;HTU21D;64441;44.708;37.780;2022-11-18T07:55:58;15.76;75.05
75134;HTU21D;64441;44.708;37.780;2022-11-18T07:58:24;15.83;75.18
75134;HTU21D;64441;44.708;37.780;2022-11-18T08:00:51;15.87;74.84
75134;HTU21D;64441;44.708;37.780;2022-11-18T08:03:17;15.90;74.89
75134;HTU21D;64441;44.708;37.780;2022-11-18T08:05:43;15.92;74.88
75134;HTU21D;64441;44.708;37.780;2022-11-18T08:08:09;15.91;74.83
75134;HTU21D;64441;44.708;37.780;2022-11-18T08:10:35;15.90;74.90
75134;HTU21D;64441;44.708;37.780;2022-11-18T08:13:02;15.89;74.86
75134;HTU21D;64441;44.708;37.780;2022-11-18T08:15:27;15.88;74.75
75134;HTU21D;64441;44.708;37.780;2022-11-18T08:17:53;15.85;74.84
75134;HTU21D;64441;44.708;37.780;2022-11-18T08:20:19;15.86;74.84
75134;HTU21D;64441;44.708;37.780;2022-11-18T08:22:45;15.86;74.61
75134;HTU21D;64441;44.708;37.780;2022-11-18T08:25:11;15.89;74.60
75134;HTU21D;64441;44.708;37.780;2022-11-18T08:27:37;15.89;74.57
75134;HTU21D;64441;44.708;37.780;2022-11-18T08:30:03;15.92;74.46
75134;HTU21D;64441;44.708;37.780;2022-11-18T08:32:29;15.92;74.28
75134;HTU21D;64441;44.708;37.780;2022-11-18T08:34:56;15.96;74.49
75134;HTU21D;64441;44.708;37.780;2022-11-18T08:37:22;15.99;74.24
75134;HTU21D;64441;44.708;37.780;2022-11-18T08:39:48;16.01;74.34
75134;HTU21D;64441;44.708;37.780;2022-11-18T08:42:14;16.03;74.35
75134;HTU21D;64441;44.708;37.780;2022-11-18T08:44:40;16.04;74.00
75134;HTU21D;64441;44.708;37.780;2022-11-18T08:47:05;16.04;74.25
75134;HTU21D;64441;44.708;37.780;2022-11-18T08:49:31;16.06;74.21
75134;HTU21D;64441;44.708;37.780;2022-11-18T08:51:57;16.11;73.86
75134;HTU21D;64441;44.708;37.780;2022-11-18T08:54:23;16.17;74.12
75134;HTU21D;64441;44.708;37.780;2022-11-18T08:56:50;16.24;74.19
75134;HTU21D;64441;44.708;37.780;2022-11-18T08:59:16;16.32;74.12
75134;HTU21D;64441;44.708;37.780;2022-11-18T09:01:42;16.40;73.78
75134;HTU21D;64441;44.708;37.780;2022-11-18T09:04:09;16.45;73.83
75134;HTU21D;64441;44.708;37.780;2022-11-18T09:06:35;16.51;73.72
75134;HTU21D;64441;44.708;37.780;2022-11-18T09:09:03;16.56;73.63
75134;HTU21D;64441;44.708;37.780;2022-11-18T09:11:29;16.55;73.57
75134;HTU21D;64441;44.708;37.780;2022-11-18T09:13:58;16.50;73.48
75134;HTU21D;64441;44.708;37.780;2022-11-18T09:16:24;16.47;73.57
75134;HTU21D;64441;44.708;37.780;2022-11-18T09:18:50;16.47;73.62
75134;HTU21D;64441;44.708;37.780;2022-11-18T09:21:17;16.46;73.42
75134;HTU21D;64441;44.708;37.780;2022-11-18T09:23:43;16.46;73.50
75134;HTU21D;64441;44.708;37.780;2022-11-18T09:26:09;16.45;73.49
75134;HTU21D;64441;44.708;37.780;2022-11-18T09:28:36;16.48;73.46
75134;HTU21D;64441;44.708;37.780;2022-11-18T09:31:05;16.48;73.40
75134;HTU21D;64441;44.708;37.780;2022-11-18T09:33:33;16.46;73.41
75134;HTU21D;64441;44.708;37.780;2022-11-18T09:35:59;16.45;73.43
75134;HTU21D;64441;44.708;37.780;2022-11-18T09:38:25;16.47;73.29
75134;HTU21D;64441;44.708;37.780;2022-11-18T09:48:48;16.44;73.14
75134;HTU21D;64441;44.708;37.780;2022-11-18T09:51:34;16.43;73.20
75134;HTU21D;64441;44.708;37.780;2022-11-18T09:54:02;16.46;73.23
75134;HTU21D;64441;44.708;37.780;2022-11-18T09:56:28;16.49;73.21
75134;HTU21D;64441;44.708;37.780;2022-11-18T09:58:54;16.55;73.16
75134;HTU21D;64441;44.708;37.780;2022-11-18T10:01:20;16.63;73.21
75134;HTU21D;64441;44.708;37.780;2022-11-18T10:03:46;16.72;72.83
75134;HTU21D;64441;44.708;37.780;2022-11-18T10:11:12;16.88;72.83
75134;HTU21D;64441;44.708;37.780;2022-11-18T10:19:37;16.99;72.19
75134;HTU21D;64441;44.708;37.780;2022-11-18T10:21:43;16.96;72.41
75134;HTU21D;64441;44.708;37.780;2022-11-18T10:24:24;16.93;72.54
75134;HTU21D;64441;44.708;37.780;2022-11-18T10:26:54;16.91;72.62
75134;HTU21D;64441;44.708;37.780;2022-11-18T10:29:20;16.91;72.39
75134;HTU21D;64441;44.708;37.780;2022-11-18T10:34:18;16.89;72.61
75134;HTU21D;64441;44.708;37.780;2022-11-18T10:36:56;16.91;72.65
75134;HTU21D;64441;44.708;37.780;2022-11-18T10:39:23;16.91;72.00
75134;HTU21D;64441;44.708;37.780;2022-11-18T10:41:50;16.90;72.32
75134;HTU21D;64441;44.708;37.780;2022-11-18T10:46:52;16.88;72.40
75134;HTU21D;64441;44.708;37.780;2022-11-18T10:49:18;16.89;72.47
75134;HTU21D;64441;44.708;37.780;2022-11-18T10:54:14;16.90;72.43
75134;HTU21D;64441;44.708;37.780;2022-11-18T10:56:48;16.91;72.47
75134;HTU21D;64441;44.708;37.780;2022-11-18T11:02:06;17.01;72.54
75134;HTU21D;64441;44.708;37.780;2022-11-18T11:04:35;17.05;71.56
75134;HTU21D;64441;44.708;37.780;2022-11-18T11:07:13;16.98;71.46
75134;HTU21D;64441;44.708;37.780;2022-11-18T11:09:39;16.87;71.64
75134;HTU21D;64441;44.708;37.780;2022-11-18T11:12:14;16.79;71.76
75134;HTU21D;64441;44.708;37.780;2022-11-18T11:17:09;16.67;71.89
75134;HTU21D;64441;44.708;37.780;2022-11-18T11:19:41;16.63;71.93
75134;HTU21D;64441;44.708;37.780;2022-11-18T11:22:11;16.60;71.97
75134;HTU21D;64441;44.708;37.780;2022-11-18T11:24:37;16.57;72.02
75134;HTU21D;64441;44.708;37.780;2022-11-18T11:27:11;16.52;71.80
75134;HTU21D;64441;44.708;37.780;2022-11-18T11:35:52;16.28;72.02
75134;HTU21D;64441;44.708;37.780;2022-11-18T11:37:59;16.22;72.24
75134;HTU21D;64441;44.708;37.780;2022-11-18T11:40:31;16.22;72.40
75134;HTU21D;64441;44.708;37.780;2022-11-18T11:43:03;16.24;72.38
75134;HTU21D;64441;44.708;37.780;2022-11-18T11:48:16;16.25;72.38
75134;HTU21D;64441;44.708;37.780;2022-11-18T11:51:35;16.26;72.45
75134;HTU21D;64441;44.708;37.780;2022-11-18T11:53:49;16.28;72.42
75134;HTU21D;64441;44.708;37.780;2022-11-18T11:56:25;16.28;72.55
75134;HTU21D;64441;44.708;37.780;2022-11-18T12:01:35;16.42;72.66
75134;HTU21D;64441;44.708;37.780;2022-11-18T12:06:35;16.57;72.57
75134;HTU21D;64441;44.708;37.780;2022-11-18T12:09:03;16.64;72.53
75134;HTU21D;64441;44.708;37.780;2022-11-18T12:11:33;16.71;72.35
75134;HTU21D;64441;44.708;37.780;2022-11-18T12:14:04;16.78;72.31
75134;HTU21D;64441;44.708;37.780;2022-11-18T12:19:14;16.88;72.18
75134;HTU21D;64441;44.708;37.780;2022-11-18T12:26:42;16.85;72.19
75134;HTU21D;64441;44.708;37.780;2022-11-18T12:32:13;16.86;72.11
75134;HTU21D;64441;44.708;37.780;2022-11-18T12:34:39;16.86;72.21
75134;HTU21D;64441;44.708;37.780;2022-11-18T12:39:58;16.81;71.95
75134;HTU21D;64441;44.708;37.780;2022-11-18T12:42:38;16.76;71.95
75134;HTU21D;64441;44.708;37.780;2022-11-18T12:50:59;16.65;72.32
75134;HTU21D;64441;44.708;37.780;2022-11-18T12:53:39;16.64;72.29
75134;HTU21D;64441;44.708;37.780;2022-11-18T12:56:10;16.59;72.22
75134;HTU21D;64441;44.708;37.780;2022-11-18T12:58:36;16.55;72.31
75134;HTU21D;64441;44.708;37.780;2022-11-18T13:01:03;16.48;72.30
75134;HTU21D;64441;44.708;37.780;2022-11-18T13:03:30;16.43;72.35
75134;HTU21D;64441;44.708;37.780;2022-11-18T13:05:57;16.37;72.39
75134;HTU21D;64441;44.708;37.780;2022-11-18T13:08:25;16.32;72.43
75134;HTU21D;64441;44.708;37.780;2022-11-18T13:10:52;16.29;72.49
75134;HTU21D;64441;44.708;37.780;2022-11-18T13:13:38;16.25;72.60
75134;HTU21D;64441;44.708;37.780;2022-11-18T13:16:13;16.22;72.63
75134;HTU21D;64441;44.708;37.780;2022-11-18T13:19:00;16.21;72.67
75134;HTU21D;64441;44.708;37.780;2022-11-18T13:21:27;16.21;72.68
75134;HTU21D;64441;44.708;37.780;2022-11-18T13:24:12;16.21;72.70
75134;HTU21D;64441;44.708;37.780;2022-11-18T13:26:42;16.22;72.75
75134;HTU21D;64441;44.708;37.780;2022-11-18T13:32:26;16.27;72.75
75134;HTU21D;64441;44.708;37.780;2022-11-18T13:34:27;16.30;72.75
75134;HTU21D;64441;44.708;37.780;2022-11-18T13:36:53;16.31;72.71
75134;HTU21D;64441;44.708;37.780;2022-11-18T13:41:57;16.29;72.62
75134;HTU21D;64441;44.708;37.780;2022-11-18T13:44:24;16.25;72.59
75134;HTU21D;64441;44.708;37.780;2022-11-18T13:46:51;16.22;72.64
75134;HTU21D;64441;44.708;37.780;2022-11-18T13:49:20;16.20;72.67
75134;HTU21D;64441;44.708;37.780;2022-11-18T13:51:48;16.20;72.66
75134;HTU21D;64441;44.708;37.780;2022-11-18T13:54:20;16.20;72.67
75134;HTU21D;64441;44.708;37.780;2022-11-18T13:56:49;16.20;72.68
75134;HTU21D;64441;44.708;37.780;2022-11-18T13:59:16;16.21;72.70
75134;HTU21D;64441;44.708;37.780;2022-11-18T14:01:43;16.22;72.73
75134;HTU21D;64441;44.708;37.780;2022-11-18T14:04:17;16.21;72.73
75134;HTU21D;64441;44.708;37.780;2022-11-18T14:06:44;16.22;72.74
75134;HTU21D;64441;44.708;37.780;2022-11-18T14:11:36;16.21;72.76
75134;HTU21D;64441;44.708;37.780;2022-11-18T14:14:02;16.21;72.77
75134;HTU21D;64441;44.708;37.780;2022-11-18T14:16:30;16.21;72.78
75134;HTU21D;64441;44.708;37.780;2022-11-18T14:18:56;16.20;72.76
75134;HTU21D;64441;44.708;37.780;2022-11-18T14:21:26;16.18;72.76
75134;HTU21D;64441;44.708;37.780;2022-11-18T14:23:52;16.15;72.77
75134;HTU21D;64441;44.708;37.780;2022-11-18T14:26:28;16.12;72.78
75134;HTU21D;64441;44.708;37.780;2022-11-18T14:28:55;16.10;72.83
75134;HTU21D;64441;44.708;37.780;2022-11-18T14:31:25;16.06;72.87
75134;HTU21D;64441;44.708;37.780;2022-11-18T14:34:05;16.07;72.90
75134;HTU21D;64441;44.708;37.780;2022-11-18T14:36:31;16.06;72.92
75134;HTU21D;64441;44.708;37.780;2022-11-18T14:38:57;16.05;72.89
75134;HTU21D;64441;44.708;37.780;2022-11-18T14:41:22;16.05;72.90
75134;HTU21D;64441;44.708;37.780;2022-11-18T14:44:07;16.04;72.85
75134;HTU21D;64441;44.708;37.780;2022-11-18T14:46:36;16.04;72.86
75134;HTU21D;64441;44.708;37.780;2022-11-18T14:49:03;15.98;72.82
75134;HTU21D;64441;44.708;37.780;2022-11-18T14:51:28;15.92;72.87
75134;HTU21D;64441;44.708;37.780;2022-11-18T14:53:54;15.89;72.89
75134;HTU21D;64441;44.708;37.780;2022-11-18T14:56:28;15.85;72.92
75134;HTU21D;64441;44.708;37.780;2022-11-18T14:58:54;15.82;73.00
75134;HTU21D;64441;44.708;37.780;2022-11-18T15:01:22;15.82;73.06
75134;HTU21D;64441;44.708;37.780;2022-11-18T15:03:52;15.83;73.07
75134;HTU21D;64441;44.708;37.780;2022-11-18T15:06:19;15.82;73.09
75134;HTU21D;64441;44.708;37.780;2022-11-18T15:08:46;15.83;73.13
75134;HTU21D;64441;44.708;37.780;2022-11-18T15:11:12;15.85;73.16
75134;HTU21D;64441;44.708;37.780;2022-11-18T15:13:39;15.88;73.18
75134;HTU21D;64441;44.708;37.780;2022-11-18T15:18:37;15.88;73.12
75134;HTU21D;64441;44.708;37.780;2022-11-18T15:21:03;15.88;73.23
75134;HTU21D;64441;44.708;37.780;2022-11-18T15:23:29;15.88;73.29
75134;HTU21D;64441;44.708;37.780;2022-11-18T15:25:55;15.88;73.32
75134;HTU21D;64441;44.708;37.780;2022-11-18T15:28:21;15.90;73.37
75134;HTU21D;64441;44.708;37.780;2022-11-18T15:30:47;15.90;73.41
75134;HTU21D;64441;44.708;37.780;2022-11-18T15:33:13;15.92;73.57
75134;HTU21D;64441;44.708;37.780;2022-11-18T15:35:39;15.90;73.70
75134;HTU21D;64441;44.708;37.780;2022-11-18T15:38:05;15.89;73.71
75134;HTU21D;64441;44.708;37.780;2022-11-18T15:40:31;15.87;73.67
75134;HTU21D;64441;44.708;37.780;2022-11-18T15:42:57;15.86;73.64
75134;HTU21D;64441;44.708;37.780;2022-11-18T15:45:22;15.84;73.70
75134;HTU21D;64441;44.708;37.780;2022-11-18T15:47:50;15.85;73.83
75134;HTU21D;64441;44.708;37.780;2022-11-18T15:50:16;15.88;73.88
75134;HTU21D;64441;44.708;37.780;2022-11-18T15:52:42;15.91;73.87
75134;HTU21D;64441;44.708;37.780;2022-11-18T15:55:08;15.92;73.98
75134;HTU21D;64441;44.708;37.780;2022-11-18T15:57:34;15.97;73.93
75134;HTU21D;64441;44.708;37.780;2022-11-18T15:59:59;16.00;73.95
75134;HTU21D;64441;44.708;37.780;2022-11-18T16:02:25;16.02;73.99
75134;HTU21D;64441;44.708;37.780;2022-11-18T16:04:51;16.03;73.98
75134;HTU21D;64441;44.708;37.780;2022-11-18T16:07:17;16.07;73.98
75134;HTU21D;64441;44.708;37.780;2022-11-18T16:09:43;16.11;74.09
75134;HTU21D;64441;44.708;37.780;2022-11-18T16:12:28;16.14;74.02
75134;HTU21D;64441;44.708;37.780;2022-11-18T16:15:15;16.15;74.24
75134;HTU21D;64441;44.708;37.780;2022-11-18T16:18:00;16.17;74.40
75134;HTU21D;64441;44.708;37.780;2022-11-18T16:20:26;16.18;74.43
75134;HTU21D;64441;44.708;37.780;2022-11-18T16:22:53;16.18;74.47
75134;HTU21D;64441;44.708;37.780;2022-11-18T16:25:20;16.19;74.49
75134;HTU21D;64441;44.708;37.780;2022-11-18T16:27:46;16.22;74.44
75134;HTU21D;64441;44.708;37.780;2022-11-18T16:30:12;16.22;74.62
75134;HTU21D;64441;44.708;37.780;2022-11-18T16:32:58;16.25;74.63
75134;HTU21D;64441;44.708;37.780;2022-11-18T16:35:24;16.25;74.60
75134;HTU21D;64441;44.708;37.780;2022-11-18T16:37:51;16.26;74.64
75134;HTU21D;64441;44.708;37.780;2022-11-18T16:40:16;16.27;74.58
75134;HTU21D;64441;44.708;37.780;2022-11-18T16:42:42;16.27;74.60
75134;HTU21D;64441;44.708;37.780;2022-11-18T16:45:08;16.27;74.67
75134;HTU21D;64441;44.708;37.780;2022-11-18T16:47:35;16.26;74.73
75134;HTU21D;64441;44.708;37.780;2022-11-18T16:50:02;16.27;74.74